sensor_id;sensor_type;location;lat;lon;timestamp;P1;durP1;ratioP1;P2;durP2;ratioP2
12519;SDS011;6325;49.540;8.364;2022-09-20T00:04:55;2.33;;;1.53;;
12519;SDS011;6325;49.540;8.364;2022-09-20T00:07:36;1.10;;;1.10;;
12519;SDS011;6325;49.540;8.364;2022-09-20T00:10:24;2.35;;;1.30;;
12519;SDS011;6325;49.540;8.364;2022-09-20T00:13:03;1.85;;;1.33;;
12519;SDS011;6325;49.540;8.364;2022-09-20T00:19:14;1.67;;;1.30;;
12519;SDS011;6325;49.540;8.364;2022-09-20T00:30:14;1.65;;;1.35;;
12519;SDS011;6325;49.540;8.364;2022-09-20T01:41:06;1.23;;;1.10;;
12519;SDS011;6325;49.540;8.364;2022-09-20T01:54:02;1.13;;;1.02;;
12519;SDS011;6325;49.540;8.364;2022-09-20T02:07:48;2.50;;;1.42;;
12519;SDS011;6325;49.540;8.364;2022-09-20T02:55:36;0.95;;;0.95;;
12519;SDS011;6325;49.540;8.364;2022-09-20T03:03:22;1.42;;;0.95;;
12519;SDS011;6325;49.540;8.364;2022-09-20T04:01:52;1.67;;;1.07;;
12519;SDS011;6325;49.540;8.364;2022-09-20T04:04:54;1.10;;;1.00;;
12519;SDS011;6325;49.540;8.364;2022-09-20T04:08:39;0.95;;;0.80;;
12519;SDS011;6325;49.540;8.364;2022-09-20T04:28:14;0.90;;;0.90;;
12519;SDS011;6325;49.540;8.364;2022-09-20T04:31:32;1.10;;;1.00;;
12519;SDS011;6325;49.540;8.364;2022-09-20T04:34:23;1.10;;;1.00;;
12519;SDS011;6325;49.540;8.364;2022-09-20T04:40:59;0.82;;;0.80;;
12519;SDS011;6325;49.540;8.364;2022-09-20T04:44:07;1.48;;;0.90;;
12519;SDS011;6325;49.540;8.364;2022-09-20T04:47:11;1.67;;;1.00;;
12519;SDS011;6325;49.540;8.364;2022-09-20T04:56:31;1.30;;;1.20;;
12519;SDS011;6325;49.540;8.364;2022-09-20T04:59:20;1.60;;;1.20;;
12519;SDS011;6325;49.540;8.364;2022-09-20T05:15:16;2.17;;;1.60;;
12519;SDS011;6325;49.540;8.364;2022-09-20T05:18:21;1.52;;;1.30;;
12519;SDS011;6325;49.540;8.364;2022-09-20T05:28:22;1.83;;;1.50;;
12519;SDS011;6325;49.540;8.364;2022-09-20T05:31:33;2.30;;;1.80;;
12519;SDS011;6325;49.540;8.364;2022-09-20T05:34:43;1.95;;;1.73;;
12519;SDS011;6325;49.540;8.364;2022-09-20T05:39:07;2.28;;;1.88;;
12519;SDS011;6325;49.540;8.364;2022-09-20T05:41:20;1.70;;;1.60;;
12519;SDS011;6325;49.540;8.364;2022-09-20T05:43:57;2.00;;;1.90;;
12519;SDS011;6325;49.540;8.364;2022-09-20T05:46:43;1.90;;;1.80;;
12519;SDS011;6325;49.540;8.364;2022-09-20T05:49:23;2.40;;;2.20;;
12519;SDS011;6325;49.540;8.364;2022-09-20T05:52:12;2.30;;;2.03;;
12519;SDS011;6325;49.540;8.364;2022-09-20T05:55:05;4.10;;;2.67;;
12519;SDS011;6325;49.540;8.364;2022-09-20T05:57:50;2.72;;;2.33;;
12519;SDS011;6325;49.540;8.364;2022-09-20T06:00:29;2.87;;;2.23;;
12519;SDS011;6325;49.540;8.364;2022-09-20T06:03:08;1.90;;;1.80;;
12519;SDS011;6325;49.540;8.364;2022-09-20T06:05:48;2.50;;;1.98;;
12519;SDS011;6325;49.540;8.364;2022-09-20T06:08:29;2.40;;;1.70;;
12519;SDS011;6325;49.540;8.364;2022-09-20T06:11:12;2.00;;;1.90;;
12519;SDS011;6325;49.540;8.364;2022-09-20T06:14:03;1.77;;;1.67;;
12519;SDS011;6325;49.540;8.364;2022-09-20T06:16:42;1.95;;;1.75;;
12519;SDS011;6325;49.540;8.364;2022-09-20T06:19:17;5.18;;;2.38;;
12519;SDS011;6325;49.540;8.364;2022-09-20T06:21:51;2.28;;;1.92;;
12519;SDS011;6325;49.540;8.364;2022-09-20T06:24:25;1.75;;;1.65;;
12519;SDS011;6325;49.540;8.364;2022-09-20T06:27:05;2.03;;;1.60;;
12519;SDS011;6325;49.540;8.364;2022-09-20T06:29:37;1.60;;;1.50;;
12519;SDS011;6325;49.540;8.364;2022-09-20T06:32:09;2.10;;;1.60;;
12519;SDS011;6325;49.540;8.364;2022-09-20T06:34:43;2.65;;;1.90;;
12519;SDS011;6325;49.540;8.364;2022-09-20T06:37:18;2.00;;;1.75;;
12519;SDS011;6325;49.540;8.364;2022-09-20T06:40:23;2.95;;;1.80;;
12519;SDS011;6325;49.540;8.364;2022-09-20T06:43:19;3.80;;;1.90;;
12519;SDS011;6325;49.540;8.364;2022-09-20T06:45:50;2.70;;;1.70;;
12519;SDS011;6325;49.540;8.364;2022-09-20T06:48:31;2.83;;;1.80;;
12519;SDS011;6325;49.540;8.364;2022-09-20T06:51:37;2.30;;;1.60;;
12519;SDS011;6325;49.540;8.364;2022-09-20T06:54:15;3.20;;;1.70;;
12519;SDS011;6325;49.540;8.364;2022-09-20T06:56:52;1.52;;;1.42;;
12519;SDS011;6325;49.540;8.364;2022-09-20T06:59:36;3.92;;;1.80;;
12519;SDS011;6325;49.540;8.364;2022-09-20T07:02:18;2.72;;;1.73;;
12519;SDS011;6325;49.540;8.364;2022-09-20T07:08:16;3.97;;;1.95;;
12519;SDS011;6325;49.540;8.364;2022-09-20T07:11:00;2.80;;;1.40;;
12519;SDS011;6325;49.540;8.364;2022-09-20T07:14:09;3.20;;;1.95;;
12519;SDS011;6325;49.540;8.364;2022-09-20T07:17:37;2.97;;;1.77;;
12519;SDS011;6325;49.540;8.364;2022-09-20T07:20:55;3.20;;;1.70;;
12519;SDS011;6325;49.540;8.364;2022-09-20T07:23:39;4.05;;;1.95;;
12519;SDS011;6325;49.540;8.364;2022-09-20T07:26:17;1.83;;;1.55;;
12519;SDS011;6325;49.540;8.364;2022-09-20T07:29:22;2.50;;;1.30;;
12519;SDS011;6325;49.540;8.364;2022-09-20T07:32:06;2.58;;;1.58;;
12519;SDS011;6325;49.540;8.364;2022-09-20T07:34:49;3.00;;;1.60;;
12519;SDS011;6325;49.540;8.364;2022-09-20T07:37:32;2.22;;;1.48;;
12519;SDS011;6325;49.540;8.364;2022-09-20T07:40:16;2.50;;;1.70;;
12519;SDS011;6325;49.540;8.364;2022-09-20T07:43:03;1.55;;;1.38;;
12519;SDS011;6325;49.540;8.364;2022-09-20T07:45:48;4.07;;;1.65;;
12519;SDS011;6325;49.540;8.364;2022-09-20T07:48:37;2.45;;;1.80;;
12519;SDS011;6325;49.540;8.364;2022-09-20T07:51:54;3.00;;;2.00;;
12519;SDS011;6325;49.540;8.364;2022-09-20T07:54:32;2.60;;;2.03;;
12519;SDS011;6325;49.540;8.364;2022-09-20T07:57:25;13.68;;;3.15;;
12519;SDS011;6325;49.540;8.364;2022-09-20T08:00:27;3.33;;;2.00;;
12519;SDS011;6325;49.540;8.364;2022-09-20T08:03:02;3.35;;;2.20;;
12519;SDS011;6325;49.540;8.364;2022-09-20T08:05:30;4.55;;;2.45;;
12519;SDS011;6325;49.540;8.364;2022-09-20T08:07:56;3.28;;;2.10;;
12519;SDS011;6325;49.540;8.364;2022-09-20T08:10:25;3.70;;;2.80;;
12519;SDS011;6325;49.540;8.364;2022-09-20T08:12:53;2.65;;;2.08;;
12519;SDS011;6325;49.540;8.364;2022-09-20T08:15:20;2.77;;;2.30;;
12519;SDS011;6325;49.540;8.364;2022-09-20T08:17:46;2.83;;;2.57;;
12519;SDS011;6325;49.540;8.364;2022-09-20T08:20:13;5.53;;;4.53;;
12519;SDS011;6325;49.540;8.364;2022-09-20T08:22:40;3.33;;;2.60;;
12519;SDS011;6325;49.540;8.364;2022-09-20T08:25:08;3.35;;;2.53;;
12519;SDS011;6325;49.540;8.364;2022-09-20T08:27:35;3.45;;;3.15;;
12519;SDS011;6325;49.540;8.364;2022-09-20T08:30:04;12.40;;;11.30;;
12519;SDS011;6325;49.540;8.364;2022-09-20T08:32:31;5.65;;;5.20;;
12519;SDS011;6325;49.540;8.364;2022-09-20T08:34:58;4.80;;;3.38;;
12519;SDS011;6325;49.540;8.364;2022-09-20T08:37:25;3.13;;;2.30;;
12519;SDS011;6325;49.540;8.364;2022-09-20T08:39:52;2.17;;;1.50;;
12519;SDS011;6325;49.540;8.364;2022-09-20T08:42:21;4.35;;;2.20;;
12519;SDS011;6325;49.540;8.364;2022-09-20T08:44:53;4.00;;;2.38;;
12519;SDS011;6325;49.540;8.364;2022-09-20T08:47:25;4.07;;;2.40;;
12519;SDS011;6325;49.540;8.364;2022-09-20T08:49:55;2.33;;;1.42;;
12519;SDS011;6325;49.540;8.364;2022-09-20T08:52:24;2.20;;;1.52;;
12519;SDS011;6325;49.540;8.364;2022-09-20T08:54:55;1.42;;;1.23;;
12519;SDS011;6325;49.540;8.364;2022-09-20T08:57:23;2.58;;;1.42;;
12519;SDS011;6325;49.540;8.364;2022-09-20T08:59:56;2.42;;;1.92;;
12519;SDS011;6325;49.540;8.364;2022-09-20T09:02:25;3.08;;;1.80;;
12519;SDS011;6325;49.540;8.364;2022-09-20T09:04:56;2.92;;;1.38;;
12519;SDS011;6325;49.540;8.364;2022-09-20T09:07:23;3.58;;;2.00;;
12519;SDS011;6325;49.540;8.364;2022-09-20T09:09:51;2.63;;;1.58;;
12519;SDS011;6325;49.540;8.364;2022-09-20T09:12:22;4.15;;;3.60;;
12519;SDS011;6325;49.540;8.364;2022-09-20T09:14:50;3.25;;;2.85;;
12519;SDS011;6325;49.540;8.364;2022-09-20T09:17:20;3.47;;;3.13;;
12519;SDS011;6325;49.540;8.364;2022-09-20T09:19:50;3.80;;;2.67;;
12519;SDS011;6325;49.540;8.364;2022-09-20T09:22:21;3.30;;;1.80;;
12519;SDS011;6325;49.540;8.364;2022-09-20T09:27:33;3.22;;;1.40;;
12519;SDS011;6325;49.540;8.364;2022-09-20T09:30:00;2.15;;;1.20;;
12519;SDS011;6325;49.540;8.364;2022-09-20T09:32:28;2.47;;;1.40;;
12519;SDS011;6325;49.540;8.364;2022-09-20T09:35:15;2.37;;;1.47;;
12519;SDS011;6325;49.540;8.364;2022-09-20T09:37:51;2.20;;;1.50;;
12519;SDS011;6325;49.540;8.364;2022-09-20T09:40:19;4.68;;;2.33;;
12519;SDS011;6325;49.540;8.364;2022-09-20T09:42:47;4.10;;;3.70;;
12519;SDS011;6325;49.540;8.364;2022-09-20T09:45:26;5.07;;;4.75;;
12519;SDS011;6325;49.540;8.364;2022-09-20T09:47:59;4.70;;;4.30;;
12519;SDS011;6325;49.540;8.364;2022-09-20T09:50:28;4.68;;;4.07;;
12519;SDS011;6325;49.540;8.364;2022-09-20T09:52:58;2.70;;;2.50;;
12519;SDS011;6325;49.540;8.364;2022-09-20T09:55:39;2.88;;;2.55;;
12519;SDS011;6325;49.540;8.364;2022-09-20T09:58:29;3.83;;;1.75;;
12519;SDS011;6325;49.540;8.364;2022-09-20T10:01:10;2.00;;;1.60;;
12519;SDS011;6325;49.540;8.364;2022-09-20T10:03:51;2.00;;;1.70;;
12519;SDS011;6325;49.540;8.364;2022-09-20T10:06:28;2.17;;;1.73;;
12519;SDS011;6325;49.540;8.364;2022-09-20T10:09:05;5.82;;;5.32;;
12519;SDS011;6325;49.540;8.364;2022-09-20T10:11:56;2.85;;;2.30;;
12519;SDS011;6325;49.540;8.364;2022-09-20T10:14:43;3.90;;;1.88;;
12519;SDS011;6325;49.540;8.364;2022-09-20T10:17:22;3.00;;;2.38;;
12519;SDS011;6325;49.540;8.364;2022-09-20T10:20:01;3.30;;;3.00;;
12519;SDS011;6325;49.540;8.364;2022-09-20T10:22:37;3.45;;;2.88;;
12519;SDS011;6325;49.540;8.364;2022-09-20T10:25:15;2.90;;;2.10;;
12519;SDS011;6325;49.540;8.364;2022-09-20T10:27:57;7.35;;;6.72;;
12519;SDS011;6325;49.540;8.364;2022-09-20T10:30:34;6.78;;;6.18;;
12519;SDS011;6325;49.540;8.364;2022-09-20T10:33:13;6.40;;;5.65;;
12519;SDS011;6325;49.540;8.364;2022-09-20T10:38:48;4.47;;;3.80;;
12519;SDS011;6325;49.540;8.364;2022-09-20T10:41:28;1.73;;;1.40;;
12519;SDS011;6325;49.540;8.364;2022-09-20T10:44:26;2.30;;;1.60;;
12519;SDS011;6325;49.540;8.364;2022-09-20T10:47:06;4.75;;;3.10;;
12519;SDS011;6325;49.540;8.364;2022-09-20T10:49:40;4.93;;;3.30;;
12519;SDS011;6325;49.540;8.364;2022-09-20T10:55:30;3.55;;;2.70;;
12519;SDS011;6325;49.540;8.364;2022-09-20T11:01:02;5.97;;;4.03;;
12519;SDS011;6325;49.540;8.364;2022-09-20T11:03:41;4.00;;;2.80;;
12519;SDS011;6325;49.540;8.364;2022-09-20T11:06:31;1.90;;;1.80;;
12519;SDS011;6325;49.540;8.364;2022-09-20T11:09:14;1.40;;;1.27;;
12519;SDS011;6325;49.540;8.364;2022-09-20T11:11:46;1.20;;;1.10;;
12519;SDS011;6325;49.540;8.364;2022-09-20T11:14:19;1.95;;;1.20;;
12519;SDS011;6325;49.540;8.364;2022-09-20T11:16:52;2.28;;;1.30;;
12519;SDS011;6325;49.540;8.364;2022-09-20T11:19:25;1.50;;;1.40;;
12519;SDS011;6325;49.540;8.364;2022-09-20T11:21:59;1.80;;;1.70;;
12519;SDS011;6325;49.540;8.364;2022-09-20T11:24:34;1.30;;;1.20;;
12519;SDS011;6325;49.540;8.364;2022-09-20T11:27:09;1.33;;;1.20;;
12519;SDS011;6325;49.540;8.364;2022-09-20T11:29:43;1.57;;;1.30;;
12519;SDS011;6325;49.540;8.364;2022-09-20T11:32:16;2.15;;;1.52;;
12519;SDS011;6325;49.540;8.364;2022-09-20T11:34:49;1.55;;;1.33;;
12519;SDS011;6325;49.540;8.364;2022-09-20T11:37:19;1.67;;;1.25;;
12519;SDS011;6325;49.540;8.364;2022-09-20T11:39:55;1.40;;;1.30;;
12519;SDS011;6325;49.540;8.364;2022-09-20T11:42:28;1.30;;;1.17;;
12519;SDS011;6325;49.540;8.364;2022-09-20T11:44:58;1.45;;;1.23;;
12519;SDS011;6325;49.540;8.364;2022-09-20T11:47:26;1.67;;;1.52;;
12519;SDS011;6325;49.540;8.364;2022-09-20T11:50:05;1.30;;;1.10;;
12519;SDS011;6325;49.540;8.364;2022-09-20T11:53:05;2.95;;;1.55;;
12519;SDS011;6325;49.540;8.364;2022-09-20T11:55:45;1.65;;;1.40;;
12519;SDS011;6325;49.540;8.364;2022-09-20T11:58:19;1.55;;;1.45;;
12519;SDS011;6325;49.540;8.364;2022-09-20T12:00:46;1.08;;;0.93;;
12519;SDS011;6325;49.540;8.364;2022-09-20T12:06:02;1.45;;;1.20;;
12519;SDS011;6325;49.540;8.364;2022-09-20T12:08:31;1.20;;;1.10;;
12519;SDS011;6325;49.540;8.364;2022-09-20T12:11:02;1.03;;;1.03;;
12519;SDS011;6325;49.540;8.364;2022-09-20T12:13:33;1.80;;;1.30;;
12519;SDS011;6325;49.540;8.364;2022-09-20T12:16:02;1.38;;;1.10;;
12519;SDS011;6325;49.540;8.364;2022-09-20T12:18:45;0.93;;;0.80;;
12519;SDS011;6325;49.540;8.364;2022-09-20T12:21:25;1.00;;;1.00;;
12519;SDS011;6325;49.540;8.364;2022-09-20T12:26:51;0.77;;;0.77;;
12519;SDS011;6325;49.540;8.364;2022-09-20T12:32:51;1.23;;;1.10;;
12519;SDS011;6325;49.540;8.364;2022-09-20T12:38:44;0.80;;;0.80;;
12519;SDS011;6325;49.540;8.364;2022-09-20T12:41:46;0.70;;;0.70;;
12519;SDS011;6325;49.540;8.364;2022-09-20T12:44:22;1.00;;;1.00;;
12519;SDS011;6325;49.540;8.364;2022-09-20T12:46:52;0.70;;;0.70;;
12519;SDS011;6325;49.540;8.364;2022-09-20T12:49:33;0.80;;;0.80;;
12519;SDS011;6325;49.540;8.364;2022-09-20T12:52:22;0.93;;;0.93;;
12519;SDS011;6325;49.540;8.364;2022-09-20T12:55:24;0.98;;;0.90;;
12519;SDS011;6325;49.540;8.364;2022-09-20T12:58:02;1.00;;;1.00;;
12519;SDS011;6325;49.540;8.364;2022-09-20T13:00:36;1.50;;;1.40;;
12519;SDS011;6325;49.540;8.364;2022-09-20T13:03:10;1.55;;;1.30;;
12519;SDS011;6325;49.540;8.364;2022-09-20T13:05:50;1.20;;;1.20;;
12519;SDS011;6325;49.540;8.364;2022-09-20T13:08:51;1.00;;;1.00;;
12519;SDS011;6325;49.540;8.364;2022-09-20T13:11:27;0.98;;;0.98;;
12519;SDS011;6325;49.540;8.364;2022-09-20T13:13:56;1.25;;;1.10;;
12519;SDS011;6325;49.540;8.364;2022-09-20T13:16:28;1.20;;;1.10;;
12519;SDS011;6325;49.540;8.364;2022-09-20T13:19:00;1.05;;;0.95;;
12519;SDS011;6325;49.540;8.364;2022-09-20T13:21:31;1.00;;;1.00;;
12519;SDS011;6325;49.540;8.364;2022-09-20T13:24:01;1.00;;;1.00;;
12519;SDS011;6325;49.540;8.364;2022-09-20T13:26:32;1.30;;;1.20;;
12519;SDS011;6325;49.540;8.364;2022-09-20T13:29:05;1.40;;;1.30;;
12519;SDS011;6325;49.540;8.364;2022-09-20T13:31:34;1.95;;;1.40;;
12519;SDS011;6325;49.540;8.364;2022-09-20T13:36:56;2.78;;;1.98;;
12519;SDS011;6325;49.540;8.364;2022-09-20T13:39:26;2.30;;;1.83;;
12519;SDS011;6325;49.540;8.364;2022-09-20T13:42:00;1.77;;;1.67;;
12519;SDS011;6325;49.540;8.364;2022-09-20T13:44:30;2.13;;;1.95;;
12519;SDS011;6325;49.540;8.364;2022-09-20T13:46:59;2.95;;;2.70;;
12519;SDS011;6325;49.540;8.364;2022-09-20T13:49:29;3.80;;;3.00;;
12519;SDS011;6325;49.540;8.364;2022-09-20T13:51:58;3.80;;;2.92;;
12519;SDS011;6325;49.540;8.364;2022-09-20T13:54:36;2.72;;;2.50;;
12519;SDS011;6325;49.540;8.364;2022-09-20T13:57:04;2.25;;;1.83;;
12519;SDS011;6325;49.540;8.364;2022-09-20T13:59:44;1.77;;;1.67;;
12519;SDS011;6325;49.540;8.364;2022-09-20T14:02:16;1.70;;;1.60;;
12519;SDS011;6325;49.540;8.364;2022-09-20T14:04:47;1.60;;;1.50;;
12519;SDS011;6325;49.540;8.364;2022-09-20T14:07:25;1.52;;;1.42;;
12519;SDS011;6325;49.540;8.364;2022-09-20T14:09:54;1.40;;;1.30;;
12519;SDS011;6325;49.540;8.364;2022-09-20T14:12:22;1.60;;;1.40;;
12519;SDS011;6325;49.540;8.364;2022-09-20T14:14:50;2.20;;;1.52;;
12519;SDS011;6325;49.540;8.364;2022-09-20T14:17:19;2.38;;;1.60;;
12519;SDS011;6325;49.540;8.364;2022-09-20T14:19:48;1.58;;;1.48;;
12519;SDS011;6325;49.540;8.364;2022-09-20T14:22:21;1.90;;;1.35;;
12519;SDS011;6325;49.540;8.364;2022-09-20T14:24:56;1.50;;;1.40;;
12519;SDS011;6325;49.540;8.364;2022-09-20T14:27:25;1.40;;;1.30;;
12519;SDS011;6325;49.540;8.364;2022-09-20T14:29:55;1.40;;;1.30;;
12519;SDS011;6325;49.540;8.364;2022-09-20T14:32:27;1.35;;;1.25;;
12519;SDS011;6325;49.540;8.364;2022-09-20T14:35:04;1.95;;;1.35;;
12519;SDS011;6325;49.540;8.364;2022-09-20T14:37:35;1.80;;;1.48;;
12519;SDS011;6325;49.540;8.364;2022-09-20T14:40:15;1.67;;;1.50;;
12519;SDS011;6325;49.540;8.364;2022-09-20T14:42:46;1.98;;;1.38;;
12519;SDS011;6325;49.540;8.364;2022-09-20T14:45:22;1.60;;;1.48;;
12519;SDS011;6325;49.540;8.364;2022-09-20T14:47:52;1.58;;;1.48;;
12519;SDS011;6325;49.540;8.364;2022-09-20T14:50:21;1.17;;;1.10;;
12519;SDS011;6325;49.540;8.364;2022-09-20T14:55:54;1.40;;;1.30;;
12519;SDS011;6325;49.540;8.364;2022-09-20T14:58:32;1.35;;;1.25;;
12519;SDS011;6325;49.540;8.364;2022-09-20T15:01:21;1.08;;;1.08;;
12519;SDS011;6325;49.540;8.364;2022-09-20T15:03:50;1.77;;;1.30;;
12519;SDS011;6325;49.540;8.364;2022-09-20T15:06:17;1.40;;;1.05;;
12519;SDS011;6325;49.540;8.364;2022-09-20T15:08:51;2.03;;;1.30;;
12519;SDS011;6325;49.540;8.364;2022-09-20T15:11:21;1.10;;;1.00;;
12519;SDS011;6325;49.540;8.364;2022-09-20T15:13:57;1.33;;;1.20;;
12519;SDS011;6325;49.540;8.364;2022-09-20T15:16:27;1.10;;;1.00;;
12519;SDS011;6325;49.540;8.364;2022-09-20T15:18:54;1.95;;;1.10;;
12519;SDS011;6325;49.540;8.364;2022-09-20T15:21:27;2.10;;;1.30;;
12519;SDS011;6325;49.540;8.364;2022-09-20T15:23:59;1.30;;;1.20;;
12519;SDS011;6325;49.540;8.364;2022-09-20T15:26:27;1.10;;;1.00;;
12519;SDS011;6325;49.540;8.364;2022-09-20T15:28:59;1.27;;;1.17;;
12519;SDS011;6325;49.540;8.364;2022-09-20T15:31:46;1.10;;;1.03;;
12519;SDS011;6325;49.540;8.364;2022-09-20T15:34:13;1.30;;;1.20;;
12519;SDS011;6325;49.540;8.364;2022-09-20T15:36:44;1.48;;;0.98;;
12519;SDS011;6325;49.540;8.364;2022-09-20T15:39:12;3.03;;;1.20;;
12519;SDS011;6325;49.540;8.364;2022-09-20T15:41:39;1.05;;;0.90;;
12519;SDS011;6325;49.540;8.364;2022-09-20T15:44:09;1.10;;;0.82;;
12519;SDS011;6325;49.540;8.364;2022-09-20T15:46:36;0.80;;;0.80;;
12519;SDS011;6325;49.540;8.364;2022-09-20T15:49:03;0.90;;;0.90;;
12519;SDS011;6325;49.540;8.364;2022-09-20T15:51:32;1.10;;;1.00;;
12519;SDS011;6325;49.540;8.364;2022-09-20T15:54:00;0.80;;;0.80;;
12519;SDS011;6325;49.540;8.364;2022-09-20T15:56:32;1.10;;;1.00;;
12519;SDS011;6325;49.540;8.364;2022-09-20T15:59:00;0.80;;;0.80;;
12519;SDS011;6325;49.540;8.364;2022-09-20T16:01:28;0.80;;;0.80;;
12519;SDS011;6325;49.540;8.364;2022-09-20T16:03:57;1.33;;;1.00;;
12519;SDS011;6325;49.540;8.364;2022-09-20T16:06:24;1.60;;;0.90;;
